sensor_id;sensor_type;location;lat;lon;timestamp;temperature;humidity
51007;DHT22;37034;47.886;-3.904;2023-08-08T00:01:02;19.30;90.20
51007;DHT22;37034;47.886;-3.904;2023-08-08T00:03:28;19.30;90.30
51007;DHT22;37034;47.886;-3.904;2023-08-08T00:05:53;19.30;90.30
51007;DHT22;37034;47.886;-3.904;2023-08-08T00:08:19;19.30;90.40
51007;DHT22;37034;47.886;-3.904;2023-08-08T00:10:45;19.30;90.40
51007;DHT22;37034;47.886;-3.904;2023-08-08T00:13:10;19.30;90.50
51007;DHT22;37034;47.886;-3.904;2023-08-08T00:15:36;19.30;90.50
51007;DHT22;37034;47.886;-3.904;2023-08-08T00:18:02;19.30;90.50
51007;DHT22;37034;47.886;-3.904;2023-08-08T00:20:28;19.30;90.50
51007;DHT22;37034;47.886;-3.904;2023-08-08T00:22:53;19.30;90.50
51007;DHT22;37034;47.886;-3.904;2023-08-08T00:25:19;19.30;90.60
51007;DHT22;37034;47.886;-3.904;2023-08-08T00:27:45;19.30;90.60
51007;DHT22;37034;47.886;-3.904;2023-08-08T00:30:11;19.30;90.60
51007;DHT22;37034;47.886;-3.904;2023-08-08T00:32:39;19.30;90.60
51007;DHT22;37034;47.886;-3.904;2023-08-08T00:35:05;19.30;90.70
51007;DHT22;37034;47.886;-3.904;2023-08-08T00:37:30;19.30;90.70
51007;DHT22;37034;47.886;-3.904;2023-08-08T00:39:56;19.30;90.80
51007;DHT22;37034;47.886;-3.904;2023-08-08T00:42:22;19.30;90.80
51007;DHT22;37034;47.886;-3.904;2023-08-08T00:44:48;19.30;90.80
51007;DHT22;37034;47.886;-3.904;2023-08-08T00:47:13;19.30;90.80
51007;DHT22;37034;47.886;-3.904;2023-08-08T00:49:39;19.30;90.70
51007;DHT22;37034;47.886;-3.904;2023-08-08T00:52:06;19.30;90.80
51007;DHT22;37034;47.886;-3.904;2023-08-08T00:54:33;19.30;90.90
51007;DHT22;37034;47.886;-3.904;2023-08-08T00:56:58;19.30;90.80
51007;DHT22;37034;47.886;-3.904;2023-08-08T00:59:24;19.40;90.90
51007;DHT22;37034;47.886;-3.904;2023-08-08T01:01:49;19.40;90.90
51007;DHT22;37034;47.886;-3.904;2023-08-08T01:04:16;19.40;91.00
51007;DHT22;37034;47.886;-3.904;2023-08-08T01:09:41;19.40;91.10
51007;DHT22;37034;47.886;-3.904;2023-08-08T01:12:12;19.50;91.00
51007;DHT22;37034;47.886;-3.904;2023-08-08T01:14:41;19.50;90.90
51007;DHT22;37034;47.886;-3.904;2023-08-08T01:17:08;19.50;91.00
51007;DHT22;37034;47.886;-3.904;2023-08-08T01:19:35;19.50;91.00
51007;DHT22;37034;47.886;-3.904;2023-08-08T01:22:22;19.50;91.00
51007;DHT22;37034;47.886;-3.904;2023-08-08T01:24:49;19.50;91.10
51007;DHT22;37034;47.886;-3.904;2023-08-08T01:27:15;19.50;91.00
51007;DHT22;37034;47.886;-3.904;2023-08-08T01:29:41;19.50;91.00
51007;DHT22;37034;47.886;-3.904;2023-08-08T01:32:07;19.50;91.00
51007;DHT22;37034;47.886;-3.904;2023-08-08T01:34:34;19.50;91.00
51007;DHT22;37034;47.886;-3.904;2023-08-08T01:37:16;19.50;91.10
51007;DHT22;37034;47.886;-3.904;2023-08-08T01:39:44;19.40;91.20
51007;DHT22;37034;47.886;-3.904;2023-08-08T01:42:11;19.40;91.00
51007;DHT22;37034;47.886;-3.904;2023-08-08T01:44:39;19.40;91.00
51007;DHT22;37034;47.886;-3.904;2023-08-08T01:47:06;19.40;91.10
51007;DHT22;37034;47.886;-3.904;2023-08-08T01:49:33;19.40;91.10
51007;DHT22;37034;47.886;-3.904;2023-08-08T01:51:58;19.40;91.20
51007;DHT22;37034;47.886;-3.904;2023-08-08T01:54:24;19.40;91.20
51007;DHT22;37034;47.886;-3.904;2023-08-08T01:56:50;19.40;91.10
51007;DHT22;37034;47.886;-3.904;2023-08-08T01:59:15;19.30;91.20
51007;DHT22;37034;47.886;-3.904;2023-08-08T02:01:41;19.30;91.10
51007;DHT22;37034;47.886;-3.904;2023-08-08T02:04:07;19.40;91.20
51007;DHT22;37034;47.886;-3.904;2023-08-08T02:06:32;19.30;91.10
51007;DHT22;37034;47.886;-3.904;2023-08-08T02:08:58;19.30;91.10
51007;DHT22;37034;47.886;-3.904;2023-08-08T02:11:24;19.30;91.10
51007;DHT22;37034;47.886;-3.904;2023-08-08T02:13:49;19.20;91.10
51007;DHT22;37034;47.886;-3.904;2023-08-08T02:16:15;19.20;91.10
51007;DHT22;37034;47.886;-3.904;2023-08-08T02:18:41;19.10;91.10
51007;DHT22;37034;47.886;-3.904;2023-08-08T02:21:09;19.10;91.10
51007;DHT22;37034;47.886;-3.904;2023-08-08T02:23:35;19.10;91.10
51007;DHT22;37034;47.886;-3.904;2023-08-08T02:26:01;19.00;91.10
51007;DHT22;37034;47.886;-3.904;2023-08-08T02:28:27;19.00;91.10
51007;DHT22;37034;47.886;-3.904;2023-08-08T02:30:53;18.90;91.20
51007;DHT22;37034;47.886;-3.904;2023-08-08T02:33:18;18.90;91.10
51007;DHT22;37034;47.886;-3.904;2023-08-08T02:35:44;18.90;91.20
51007;DHT22;37034;47.886;-3.904;2023-08-08T02:38:10;18.80;91.20
51007;DHT22;37034;47.886;-3.904;2023-08-08T02:40:36;18.80;91.20
51007;DHT22;37034;47.886;-3.904;2023-08-08T02:43:02;18.80;91.20
51007;DHT22;37034;47.886;-3.904;2023-08-08T02:45:27;18.70;91.20
51007;DHT22;37034;47.886;-3.904;2023-08-08T02:47:53;18.70;91.20
51007;DHT22;37034;47.886;-3.904;2023-08-08T02:50:19;18.70;91.30
51007;DHT22;37034;47.886;-3.904;2023-08-08T02:52:44;18.70;91.20
51007;DHT22;37034;47.886;-3.904;2023-08-08T02:55:10;18.60;91.20
51007;DHT22;37034;47.886;-3.904;2023-08-08T02:57:36;18.60;91.30
51007;DHT22;37034;47.886;-3.904;2023-08-08T03:00:02;18.60;91.40
51007;DHT22;37034;47.886;-3.904;2023-08-08T03:02:29;18.60;91.40
51007;DHT22;37034;47.886;-3.904;2023-08-08T03:04:55;18.60;91.40
51007;DHT22;37034;47.886;-3.904;2023-08-08T03:07:21;18.50;91.40
51007;DHT22;37034;47.886;-3.904;2023-08-08T03:09:46;18.50;91.40
51007;DHT22;37034;47.886;-3.904;2023-08-08T03:12:12;18.50;91.50
51007;DHT22;37034;47.886;-3.904;2023-08-08T03:14:38;18.50;91.60
51007;DHT22;37034;47.886;-3.904;2023-08-08T03:17:04;18.50;91.70
51007;DHT22;37034;47.886;-3.904;2023-08-08T03:19:30;18.50;91.70
51007;DHT22;37034;47.886;-3.904;2023-08-08T03:21:55;18.50;91.80
51007;DHT22;37034;47.886;-3.904;2023-08-08T03:24:21;18.50;91.80
51007;DHT22;37034;47.886;-3.904;2023-08-08T03:26:47;18.50;91.90
51007;DHT22;37034;47.886;-3.904;2023-08-08T03:29:12;18.50;91.80
51007;DHT22;37034;47.886;-3.904;2023-08-08T03:31:38;18.60;91.90
51007;DHT22;37034;47.886;-3.904;2023-08-08T03:34:03;18.60;91.90
51007;DHT22;37034;47.886;-3.904;2023-08-08T03:36:30;18.60;91.90
51007;DHT22;37034;47.886;-3.904;2023-08-08T03:38:55;18.60;91.80
51007;DHT22;37034;47.886;-3.904;2023-08-08T03:41:21;18.60;91.90
51007;DHT22;37034;47.886;-3.904;2023-08-08T03:43:47;18.60;91.90
51007;DHT22;37034;47.886;-3.904;2023-08-08T03:46:12;18.60;92.00
51007;DHT22;37034;47.886;-3.904;2023-08-08T03:48:38;18.60;92.00
51007;DHT22;37034;47.886;-3.904;2023-08-08T03:51:04;18.60;92.10
51007;DHT22;37034;47.886;-3.904;2023-08-08T03:53:30;18.70;92.10
51007;DHT22;37034;47.886;-3.904;2023-08-08T03:55:55;18.70;92.10
51007;DHT22;37034;47.886;-3.904;2023-08-08T03:58:21;18.60;92.10
51007;DHT22;37034;47.886;-3.904;2023-08-08T04:00:47;18.70;92.20
51007;DHT22;37034;47.886;-3.904;2023-08-08T04:03:14;18.70;92.30
51007;DHT22;37034;47.886;-3.904;2023-08-08T04:05:46;18.70;92.30
51007;DHT22;37034;47.886;-3.904;2023-08-08T04:08:15;18.70;92.30
51007;DHT22;37034;47.886;-3.904;2023-08-08T04:10:41;18.70;92.20
51007;DHT22;37034;47.886;-3.904;2023-08-08T04:13:07;18.70;92.50
51007;DHT22;37034;47.886;-3.904;2023-08-08T04:15:32;18.80;92.20
51007;DHT22;37034;47.886;-3.904;2023-08-08T04:17:58;18.70;92.10
51007;DHT22;37034;47.886;-3.904;2023-08-08T04:20:24;18.70;92.10
51007;DHT22;37034;47.886;-3.904;2023-08-08T04:22:49;18.70;92.10
51007;DHT22;37034;47.886;-3.904;2023-08-08T04:25:16;18.60;92.10
51007;DHT22;37034;47.886;-3.904;2023-08-08T04:27:41;18.60;92.10
51007;DHT22;37034;47.886;-3.904;2023-08-08T04:30:07;18.60;92.10
51007;DHT22;37034;47.886;-3.904;2023-08-08T04:32:33;18.50;92.10
51007;DHT22;37034;47.886;-3.904;2023-08-08T04:34:59;18.50;92.10
51007;DHT22;37034;47.886;-3.904;2023-08-08T04:37:24;18.40;92.10
51007;DHT22;37034;47.886;-3.904;2023-08-08T04:39:50;18.40;92.10
51007;DHT22;37034;47.886;-3.904;2023-08-08T04:42:16;18.40;92.20
51007;DHT22;37034;47.886;-3.904;2023-08-08T04:44:41;18.40;92.20
51007;DHT22;37034;47.886;-3.904;2023-08-08T04:47:07;18.30;92.20
51007;DHT22;37034;47.886;-3.904;2023-08-08T04:49:33;18.30;92.30
51007;DHT22;37034;47.886;-3.904;2023-08-08T04:51:58;18.30;92.20
51007;DHT22;37034;47.886;-3.904;2023-08-08T04:54:24;18.30;92.30
51007;DHT22;37034;47.886;-3.904;2023-08-08T04:56:49;18.30;92.30
51007;DHT22;37034;47.886;-3.904;2023-08-08T04:59:15;18.30;92.30
51007;DHT22;37034;47.886;-3.904;2023-08-08T05:01:41;18.30;92.30
51007;DHT22;37034;47.886;-3.904;2023-08-08T05:04:06;18.20;92.20
51007;DHT22;37034;47.886;-3.904;2023-08-08T05:06:32;18.20;92.30
51007;DHT22;37034;47.886;-3.904;2023-08-08T05:08:58;18.20;92.20
51007;DHT22;37034;47.886;-3.904;2023-08-08T05:11:23;18.20;92.30
51007;DHT22;37034;47.886;-3.904;2023-08-08T05:13:49;18.20;92.40
51007;DHT22;37034;47.886;-3.904;2023-08-08T05:16:15;18.20;92.50
51007;DHT22;37034;47.886;-3.904;2023-08-08T05:18:41;18.20;92.60
51007;DHT22;37034;47.886;-3.904;2023-08-08T05:21:09;18.20;92.70
51007;DHT22;37034;47.886;-3.904;2023-08-08T05:23:35;18.20;92.70
51007;DHT22;37034;47.886;-3.904;2023-08-08T05:26:00;18.30;92.80
51007;DHT22;37034;47.886;-3.904;2023-08-08T05:28:26;18.30;92.80
51007;DHT22;37034;47.886;-3.904;2023-08-08T05:30:52;18.40;92.90
51007;DHT22;37034;47.886;-3.904;2023-08-08T05:33:18;18.40;92.90
51007;DHT22;37034;47.886;-3.904;2023-08-08T05:35:44;18.50;93.00
51007;DHT22;37034;47.886;-3.904;2023-08-08T05:38:09;18.50;92.90
51007;DHT22;37034;47.886;-3.904;2023-08-08T05:40:35;18.50;92.90
51007;DHT22;37034;47.886;-3.904;2023-08-08T05:43:02;18.60;92.90
51007;DHT22;37034;47.886;-3.904;2023-08-08T05:45:28;18.60;93.00
51007;DHT22;37034;47.886;-3.904;2023-08-08T05:47:53;18.70;93.10
51007;DHT22;37034;47.886;-3.904;2023-08-08T05:50:20;18.70;92.90
51007;DHT22;37034;47.886;-3.904;2023-08-08T05:52:46;18.80;92.90
51007;DHT22;37034;47.886;-3.904;2023-08-08T05:55:12;18.80;93.00
51007;DHT22;37034;47.886;-3.904;2023-08-08T05:57:37;18.80;93.00
51007;DHT22;37034;47.886;-3.904;2023-08-08T06:00:04;18.80;93.00
51007;DHT22;37034;47.886;-3.904;2023-08-08T06:02:31;18.90;93.10
51007;DHT22;37034;47.886;-3.904;2023-08-08T06:04:56;18.90;93.10
51007;DHT22;37034;47.886;-3.904;2023-08-08T06:07:22;18.90;93.10
51007;DHT22;37034;47.886;-3.904;2023-08-08T06:09:48;19.00;93.20
51007;DHT22;37034;47.886;-3.904;2023-08-08T06:12:13;19.10;93.40
51007;DHT22;37034;47.886;-3.904;2023-08-08T06:14:39;19.10;93.10
51007;DHT22;37034;47.886;-3.904;2023-08-08T06:17:05;19.10;93.20
51007;DHT22;37034;47.886;-3.904;2023-08-08T06:19:31;19.20;93.10
51007;DHT22;37034;47.886;-3.904;2023-08-08T06:21:56;19.20;93.10
51007;DHT22;37034;47.886;-3.904;2023-08-08T06:24:22;19.20;93.00
51007;DHT22;37034;47.886;-3.904;2023-08-08T06:26:48;19.20;93.00
51007;DHT22;37034;47.886;-3.904;2023-08-08T06:29:13;19.20;93.10
51007;DHT22;37034;47.886;-3.904;2023-08-08T06:31:39;19.20;93.20
51007;DHT22;37034;47.886;-3.904;2023-08-08T06:34:05;19.40;93.30
51007;DHT22;37034;47.886;-3.904;2023-08-08T06:36:31;19.40;93.30
51007;DHT22;37034;47.886;-3.904;2023-08-08T06:38:56;19.50;93.30
51007;DHT22;37034;47.886;-3.904;2023-08-08T06:41:22;19.60;93.60
51007;DHT22;37034;47.886;-3.904;2023-08-08T06:43:48;19.70;93.20
51007;DHT22;37034;47.886;-3.904;2023-08-08T06:46:14;19.70;93.30
51007;DHT22;37034;47.886;-3.904;2023-08-08T06:48:42;19.80;93.20
51007;DHT22;37034;47.886;-3.904;2023-08-08T06:51:10;19.90;93.30
51007;DHT22;37034;47.886;-3.904;2023-08-08T06:53:35;20.00;93.30
51007;DHT22;37034;47.886;-3.904;2023-08-08T06:56:01;20.00;93.20
51007;DHT22;37034;47.886;-3.904;2023-08-08T06:58:26;20.10;93.30
51007;DHT22;37034;47.886;-3.904;2023-08-08T07:00:52;20.20;93.20
51007;DHT22;37034;47.886;-3.904;2023-08-08T07:03:18;20.30;93.10
51007;DHT22;37034;47.886;-3.904;2023-08-08T07:05:43;20.20;93.10
51007;DHT22;37034;47.886;-3.904;2023-08-08T07:08:09;20.30;93.20
51007;DHT22;37034;47.886;-3.904;2023-08-08T07:10:35;20.40;93.10
51007;DHT22;37034;47.886;-3.904;2023-08-08T07:13:01;20.30;92.90
51007;DHT22;37034;47.886;-3.904;2023-08-08T07:15:27;20.30;93.10
51007;DHT22;37034;47.886;-3.904;2023-08-08T07:17:53;20.40;93.20
51007;DHT22;37034;47.886;-3.904;2023-08-08T07:20:19;20.50;93.30
51007;DHT22;37034;47.886;-3.904;2023-08-08T07:22:45;20.60;93.40
51007;DHT22;37034;47.886;-3.904;2023-08-08T07:25:10;20.70;93.40
51007;DHT22;37034;47.886;-3.904;2023-08-08T07:27:37;20.80;93.20
51007;DHT22;37034;47.886;-3.904;2023-08-08T07:30:04;20.90;93.20
51007;DHT22;37034;47.886;-3.904;2023-08-08T07:32:30;21.00;93.10
51007;DHT22;37034;47.886;-3.904;2023-08-08T07:34:55;21.10;92.90
51007;DHT22;37034;47.886;-3.904;2023-08-08T07:37:21;21.10;93.00
51007;DHT22;37034;47.886;-3.904;2023-08-08T07:39:50;21.10;92.80
51007;DHT22;37034;47.886;-3.904;2023-08-08T07:42:19;21.10;92.60
51007;DHT22;37034;47.886;-3.904;2023-08-08T07:44:44;21.10;92.70
51007;DHT22;37034;47.886;-3.904;2023-08-08T07:47:10;21.10;92.70
51007;DHT22;37034;47.886;-3.904;2023-08-08T07:49:35;21.10;92.70
51007;DHT22;37034;47.886;-3.904;2023-08-08T07:52:01;21.10;92.80
51007;DHT22;37034;47.886;-3.904;2023-08-08T07:54:27;21.20;93.00
51007;DHT22;37034;47.886;-3.904;2023-08-08T07:56:53;21.30;93.10
51007;DHT22;37034;47.886;-3.904;2023-08-08T07:59:19;21.40;92.60
51007;DHT22;37034;47.886;-3.904;2023-08-08T08:01:44;21.40;92.60
51007;DHT22;37034;47.886;-3.904;2023-08-08T08:04:10;21.50;92.80
51007;DHT22;37034;47.886;-3.904;2023-08-08T08:06:35;21.60;92.90
51007;DHT22;37034;47.886;-3.904;2023-08-08T08:09:01;21.70;92.60
51007;DHT22;37034;47.886;-3.904;2023-08-08T08:11:27;21.80;92.30
51007;DHT22;37034;47.886;-3.904;2023-08-08T08:13:52;21.90;92.20
51007;DHT22;37034;47.886;-3.904;2023-08-08T08:16:18;21.90;92.30
51007;DHT22;37034;47.886;-3.904;2023-08-08T08:18:43;21.90;92.30
51007;DHT22;37034;47.886;-3.904;2023-08-08T08:21:09;22.00;92.10
51007;DHT22;37034;47.886;-3.904;2023-08-08T08:23:35;22.00;92.10
51007;DHT22;37034;47.886;-3.904;2023-08-08T08:26:00;22.00;92.00
51007;DHT22;37034;47.886;-3.904;2023-08-08T08:28:26;22.00;92.10
51007;DHT22;37034;47.886;-3.904;2023-08-08T08:30:52;22.10;92.00
51007;DHT22;37034;47.886;-3.904;2023-08-08T08:33:18;22.20;92.00
51007;DHT22;37034;47.886;-3.904;2023-08-08T08:35:44;22.20;92.00
51007;DHT22;37034;47.886;-3.904;2023-08-08T08:38:11;22.30;91.80
51007;DHT22;37034;47.886;-3.904;2023-08-08T08:40:38;22.30;91.50
51007;DHT22;37034;47.886;-3.904;2023-08-08T08:43:06;22.30;91.80
51007;DHT22;37034;47.886;-3.904;2023-08-08T08:45:34;22.40;91.80
51007;DHT22;37034;47.886;-3.904;2023-08-08T08:48:02;22.40;91.80
51007;DHT22;37034;47.886;-3.904;2023-08-08T08:50:31;22.50;91.80
51007;DHT22;37034;47.886;-3.904;2023-08-08T08:52:59;22.60;91.40
51007;DHT22;37034;47.886;-3.904;2023-08-08T08:55:25;22.70;91.30
51007;DHT22;37034;47.886;-3.904;2023-08-08T08:57:51;22.70;91.60
51007;DHT22;37034;47.886;-3.904;2023-08-08T09:00:17;22.90;91.30
51007;DHT22;37034;47.886;-3.904;2023-08-08T09:02:43;22.90;91.30
51007;DHT22;37034;47.886;-3.904;2023-08-08T09:05:10;23.00;91.30
51007;DHT22;37034;47.886;-3.904;2023-08-08T09:07:37;23.00;90.70
51007;DHT22;37034;47.886;-3.904;2023-08-08T09:10:03;23.00;90.80
51007;DHT22;37034;47.886;-3.904;2023-08-08T09:12:30;22.90;90.60
51007;DHT22;37034;47.886;-3.904;2023-08-08T09:14:57;22.90;90.80
51007;DHT22;37034;47.886;-3.904;2023-08-08T09:17:25;22.90;90.80
51007;DHT22;37034;47.886;-3.904;2023-08-08T09:19:53;23.00;90.90
51007;DHT22;37034;47.886;-3.904;2023-08-08T09:22:20;23.10;90.90
51007;DHT22;37034;47.886;-3.904;2023-08-08T09:24:46;23.10;90.70
51007;DHT22;37034;47.886;-3.904;2023-08-08T09:27:12;23.10;90.70
51007;DHT22;37034;47.886;-3.904;2023-08-08T09:29:38;23.20;90.60
51007;DHT22;37034;47.886;-3.904;2023-08-08T09:32:08;23.20;90.60
51007;DHT22;37034;47.886;-3.904;2023-08-08T09:34:34;23.20;90.50
51007;DHT22;37034;47.886;-3.904;2023-08-08T09:37:00;23.30;90.20
51007;DHT22;37034;47.886;-3.904;2023-08-08T09:39:27;23.30;90.50
51007;DHT22;37034;47.886;-3.904;2023-08-08T09:41:53;23.40;90.30
51007;DHT22;37034;47.886;-3.904;2023-08-08T09:44:23;23.40;90.20
51007;DHT22;37034;47.886;-3.904;2023-08-08T09:46:50;23.50;90.20
51007;DHT22;37034;47.886;-3.904;2023-08-08T09:49:16;23.50;90.00
51007;DHT22;37034;47.886;-3.904;2023-08-08T09:51:42;23.50;90.00
51007;DHT22;37034;47.886;-3.904;2023-08-08T09:54:08;23.50;89.70
51007;DHT22;37034;47.886;-3.904;2023-08-08T09:56:34;23.50;88.90
51007;DHT22;37034;47.886;-3.904;2023-08-08T09:59:01;23.50;89.00
51007;DHT22;37034;47.886;-3.904;2023-08-08T10:01:27;23.50;88.80
51007;DHT22;37034;47.886;-3.904;2023-08-08T10:03:54;23.50;89.30
51007;DHT22;37034;47.886;-3.904;2023-08-08T10:06:21;23.40;89.10
51007;DHT22;37034;47.886;-3.904;2023-08-08T10:08:46;23.40;89.80
51007;DHT22;37034;47.886;-3.904;2023-08-08T10:11:12;23.50;90.00
51007;DHT22;37034;47.886;-3.904;2023-08-08T10:13:47;23.60;89.30
51007;DHT22;37034;47.886;-3.904;2023-08-08T10:16:16;23.60;89.20
51007;DHT22;37034;47.886;-3.904;2023-08-08T10:18:42;23.60;88.70
51007;DHT22;37034;47.886;-3.904;2023-08-08T10:21:07;23.70;89.10
51007;DHT22;37034;47.886;-3.904;2023-08-08T10:23:36;23.70;89.30
51007;DHT22;37034;47.886;-3.904;2023-08-08T10:26:03;23.70;89.10
51007;DHT22;37034;47.886;-3.904;2023-08-08T10:28:32;23.90;89.40
51007;DHT22;37034;47.886;-3.904;2023-08-08T10:30:59;23.90;89.60
51007;DHT22;37034;47.886;-3.904;2023-08-08T10:33:26;24.10;89.10
51007;DHT22;37034;47.886;-3.904;2023-08-08T10:38:23;24.10;88.40
51007;DHT22;37034;47.886;-3.904;2023-08-08T10:40:58;24.20;88.50
51007;DHT22;37034;47.886;-3.904;2023-08-08T10:43:29;24.20;88.20
51007;DHT22;37034;47.886;-3.904;2023-08-08T10:45:59;24.20;88.40
51007;DHT22;37034;47.886;-3.904;2023-08-08T10:48:26;24.30;87.90
51007;DHT22;37034;47.886;-3.904;2023-08-08T10:50:54;24.20;88.00
51007;DHT22;37034;47.886;-3.904;2023-08-08T10:53:23;24.30;88.10
51007;DHT22;37034;47.886;-3.904;2023-08-08T10:56:00;24.30;87.60
51007;DHT22;37034;47.886;-3.904;2023-08-08T10:58:37;24.30;88.30
51007;DHT22;37034;47.886;-3.904;2023-08-08T11:01:04;24.40;88.40
51007;DHT22;37034;47.886;-3.904;2023-08-08T11:03:37;24.60;88.60
51007;DHT22;37034;47.886;-3.904;2023-08-08T11:06:05;24.60;87.60
51007;DHT22;37034;47.886;-3.904;2023-08-08T11:08:32;24.70;88.00
51007;DHT22;37034;47.886;-3.904;2023-08-08T11:10:59;24.80;87.50
51007;DHT22;37034;47.886;-3.904;2023-08-08T11:13:25;24.90;87.30
51007;DHT22;37034;47.886;-3.904;2023-08-08T11:15:50;24.90;86.70
51007;DHT22;37034;47.886;-3.904;2023-08-08T11:18:16;24.80;87.00
51007;DHT22;37034;47.886;-3.904;2023-08-08T11:20:42;25.00;87.60
51007;DHT22;37034;47.886;-3.904;2023-08-08T11:23:09;25.10;87.30
51007;DHT22;37034;47.886;-3.904;2023-08-08T11:25:36;25.20;87.00
51007;DHT22;37034;47.886;-3.904;2023-08-08T11:28:02;25.20;86.00
51007;DHT22;37034;47.886;-3.904;2023-08-08T11:30:37;25.20;85.30
51007;DHT22;37034;47.886;-3.904;2023-08-08T11:33:03;25.10;85.40
51007;DHT22;37034;47.886;-3.904;2023-08-08T11:35:29;25.00;85.30
51007;DHT22;37034;47.886;-3.904;2023-08-08T11:37:58;25.00;86.10
51007;DHT22;37034;47.886;-3.904;2023-08-08T11:40:27;25.00;85.40
51007;DHT22;37034;47.886;-3.904;2023-08-08T11:42:55;25.00;85.80
51007;DHT22;37034;47.886;-3.904;2023-08-08T11:45:21;25.00;85.70
51007;DHT22;37034;47.886;-3.904;2023-08-08T11:47:52;25.00;85.90
51007;DHT22;37034;47.886;-3.904;2023-08-08T11:50:20;25.00;86.10
51007;DHT22;37034;47.886;-3.904;2023-08-08T11:52:50;25.20;85.80
51007;DHT22;37034;47.886;-3.904;2023-08-08T11:55:16;25.20;86.20
51007;DHT22;37034;47.886;-3.904;2023-08-08T11:57:42;25.20;85.60
51007;DHT22;37034;47.886;-3.904;2023-08-08T12:00:09;25.10;85.20
51007;DHT22;37034;47.886;-3.904;2023-08-08T12:02:44;25.10;85.00
51007;DHT22;37034;47.886;-3.904;2023-08-08T12:05:12;25.10;84.70
51007;DHT22;37034;47.886;-3.904;2023-08-08T12:07:38;25.10;85.60
51007;DHT22;37034;47.886;-3.904;2023-08-08T12:10:23;25.20;85.90
51007;DHT22;37034;47.886;-3.904;2023-08-08T12:12:54;25.20;84.20
51007;DHT22;37034;47.886;-3.904;2023-08-08T12:15:20;25.20;84.70
51007;DHT22;37034;47.886;-3.904;2023-08-08T12:17:46;25.10;84.90
51007;DHT22;37034;47.886;-3.904;2023-08-08T12:20:14;25.10;84.90
51007;DHT22;37034;47.886;-3.904;2023-08-08T12:22:40;25.10;84.50
51007;DHT22;37034;47.886;-3.904;2023-08-08T12:25:05;25.00;84.50
51007;DHT22;37034;47.886;-3.904;2023-08-08T12:27:31;25.00;84.80
51007;DHT22;37034;47.886;-3.904;2023-08-08T12:29:57;25.00;84.00
51007;DHT22;37034;47.886;-3.904;2023-08-08T12:32:26;25.00;85.30
51007;DHT22;37034;47.886;-3.904;2023-08-08T12:34:53;25.10;85.00
51007;DHT22;37034;47.886;-3.904;2023-08-08T12:37:19;25.10;85.00
51007;DHT22;37034;47.886;-3.904;2023-08-08T12:39:44;25.20;85.20
51007;DHT22;37034;47.886;-3.904;2023-08-08T12:42:10;25.30;85.10
51007;DHT22;37034;47.886;-3.904;2023-08-08T12:44:35;25.30;84.60
51007;DHT22;37034;47.886;-3.904;2023-08-08T12:47:01;25.30;84.70
51007;DHT22;37034;47.886;-3.904;2023-08-08T12:49:27;25.30;84.10
51007;DHT22;37034;47.886;-3.904;2023-08-08T12:51:52;25.30;85.10
51007;DHT22;37034;47.886;-3.904;2023-08-08T12:54:21;25.40;84.60
51007;DHT22;37034;47.886;-3.904;2023-08-08T12:56:46;25.30;83.90
51007;DHT22;37034;47.886;-3.904;2023-08-08T12:59:12;25.20;84.10
51007;DHT22;37034;47.886;-3.904;2023-08-08T13:01:38;25.20;84.40
51007;DHT22;37034;47.886;-3.904;2023-08-08T13:04:03;25.20;84.40
51007;DHT22;37034;47.886;-3.904;2023-08-08T13:06:29;25.30;84.50
51007;DHT22;37034;47.886;-3.904;2023-08-08T13:08:55;25.30;84.70
51007;DHT22;37034;47.886;-3.904;2023-08-08T13:11:21;25.40;84.20
51007;DHT22;37034;47.886;-3.904;2023-08-08T13:13:47;25.40;84.00
51007;DHT22;37034;47.886;-3.904;2023-08-08T13:16:12;25.30;83.40
51007;DHT22;37034;47.886;-3.904;2023-08-08T13:18:39;25.30;83.20
51007;DHT22;37034;47.886;-3.904;2023-08-08T13:21:05;25.20;83.20
51007;DHT22;37034;47.886;-3.904;2023-08-08T13:23:31;25.10;84.00
51007;DHT22;37034;47.886;-3.904;2023-08-08T13:25:57;25.10;84.00
51007;DHT22;37034;47.886;-3.904;2023-08-08T13:28:23;25.10;83.70
51007;DHT22;37034;47.886;-3.904;2023-08-08T13:30:49;25.00;83.60
51007;DHT22;37034;47.886;-3.904;2023-08-08T13:33:14;24.90;83.60
51007;DHT22;37034;47.886;-3.904;2023-08-08T13:35:40;25.00;85.00
51007;DHT22;37034;47.886;-3.904;2023-08-08T13:38:06;24.90;84.50
51007;DHT22;37034;47.886;-3.904;2023-08-08T13:40:33;25.00;84.70
51007;DHT22;37034;47.886;-3.904;2023-08-08T13:42:59;25.10;83.70
51007;DHT22;37034;47.886;-3.904;2023-08-08T13:45:24;25.20;83.80
51007;DHT22;37034;47.886;-3.904;2023-08-08T13:47:50;25.20;83.50
51007;DHT22;37034;47.886;-3.904;2023-08-08T13:50:15;25.20;84.00
51007;DHT22;37034;47.886;-3.904;2023-08-08T13:52:41;25.30;84.80
51007;DHT22;37034;47.886;-3.904;2023-08-08T13:55:08;25.40;83.40
51007;DHT22;37034;47.886;-3.904;2023-08-08T13:57:34;25.30;83.10
51007;DHT22;37034;47.886;-3.904;2023-08-08T14:00:00;25.30;83.40
51007;DHT22;37034;47.886;-3.904;2023-08-08T14:02:26;25.30;83.30
51007;DHT22;37034;47.886;-3.904;2023-08-08T14:04:51;25.20;83.70
51007;DHT22;37034;47.886;-3.904;2023-08-08T14:07:18;25.10;84.00
51007;DHT22;37034;47.886;-3.904;2023-08-08T14:09:44;25.20;83.50
51007;DHT22;37034;47.886;-3.904;2023-08-08T14:12:09;25.20;83.90
51007;DHT22;37034;47.886;-3.904;2023-08-08T14:14:35;25.30;83.60
51007;DHT22;37034;47.886;-3.904;2023-08-08T14:17:01;25.20;83.40
51007;DHT22;37034;47.886;-3.904;2023-08-08T14:19:26;25.20;83.90
51007;DHT22;37034;47.886;-3.904;2023-08-08T14:21:52;25.30;83.90
51007;DHT22;37034;47.886;-3.904;2023-08-08T14:24:17;25.30;83.60
51007;DHT22;37034;47.886;-3.904;2023-08-08T14:26:44;25.30;83.30
51007;DHT22;37034;47.886;-3.904;2023-08-08T14:29:11;25.40;83.80
51007;DHT22;37034;47.886;-3.904;2023-08-08T14:31:36;25.40;83.70
51007;DHT22;37034;47.886;-3.904;2023-08-08T14:34:02;25.40;83.80
51007;DHT22;37034;47.886;-3.904;2023-08-08T14:36:28;25.40;83.80
51007;DHT22;37034;47.886;-3.904;2023-08-08T14:38:54;25.40;83.80
51007;DHT22;37034;47.886;-3.904;2023-08-08T14:41:21;25.40;83.40
51007;DHT22;37034;47.886;-3.904;2023-08-08T14:43:46;25.50;82.90
51007;DHT22;37034;47.886;-3.904;2023-08-08T14:46:12;25.40;83.00
51007;DHT22;37034;47.886;-3.904;2023-08-08T14:48:38;25.30;83.00
51007;DHT22;37034;47.886;-3.904;2023-08-08T14:51:03;25.20;83.00
51007;DHT22;37034;47.886;-3.904;2023-08-08T14:53:29;25.10;82.90
51007;DHT22;37034;47.886;-3.904;2023-08-08T14:55:55;24.90;83.30
51007;DHT22;37034;47.886;-3.904;2023-08-08T14:58:20;24.90;83.60
51007;DHT22;37034;47.886;-3.904;2023-08-08T15:00:46;25.00;83.80
51007;DHT22;37034;47.886;-3.904;2023-08-08T15:03:13;25.00;83.80
51007;DHT22;37034;47.886;-3.904;2023-08-08T15:05:40;25.10;83.80
51007;DHT22;37034;47.886;-3.904;2023-08-08T15:08:06;25.10;83.00
51007;DHT22;37034;47.886;-3.904;2023-08-08T15:10:32;25.00;83.10
51007;DHT22;37034;47.886;-3.904;2023-08-08T15:12:58;25.00;83.30
51007;DHT22;37034;47.886;-3.904;2023-08-08T15:15:23;25.00;83.40